sensor_id;sensor_type;location;lat;lon;timestamp;P1;durP1;ratioP1;P2;durP2;ratioP2
61003;SDS011;46889;37.310;13.582;2023-07-09T00:00:48;11.00;;;4.90;;
61003;SDS011;46889;37.310;13.582;2023-07-09T00:03:14;12.65;;;4.93;;
61003;SDS011;46889;37.310;13.582;2023-07-09T00:05:42;14.13;;;5.10;;
61003;SDS011;46889;37.310;13.582;2023-07-09T00:08:31;12.23;;;4.30;;
61003;SDS011;46889;37.310;13.582;2023-07-09T00:10:58;13.60;;;4.25;;
61003;SDS011;46889;37.310;13.582;2023-07-09T00:13:25;11.48;;;4.32;;
61003;SDS011;46889;37.310;13.582;2023-07-09T00:15:53;12.05;;;4.90;;
61003;SDS011;46889;37.310;13.582;2023-07-09T00:18:24;10.18;;;4.70;;
61003;SDS011;46889;37.310;13.582;2023-07-09T00:20:50;16.63;;;4.95;;
61003;SDS011;46889;37.310;13.582;2023-07-09T00:23:16;12.18;;;5.05;;
61003;SDS011;46889;37.310;13.582;2023-07-09T00:25:44;11.48;;;5.18;;
61003;SDS011;46889;37.310;13.582;2023-07-09T00:28:14;13.07;;;4.72;;
61003;SDS011;46889;37.310;13.582;2023-07-09T00:30:47;7.55;;;4.10;;
61003;SDS011;46889;37.310;13.582;2023-07-09T00:33:14;9.35;;;4.30;;
61003;SDS011;46889;37.310;13.582;2023-07-09T00:35:43;9.95;;;3.65;;
61003;SDS011;46889;37.310;13.582;2023-07-09T00:38:14;9.65;;;4.15;;
61003;SDS011;46889;37.310;13.582;2023-07-09T00:40:47;7.28;;;3.75;;
61003;SDS011;46889;37.310;13.582;2023-07-09T00:43:22;11.63;;;3.83;;
61003;SDS011;46889;37.310;13.582;2023-07-09T00:46:08;6.50;;;2.95;;
61003;SDS011;46889;37.310;13.582;2023-07-09T00:48:43;10.23;;;3.20;;
61003;SDS011;46889;37.310;13.582;2023-07-09T00:51:11;5.28;;;2.83;;
61003;SDS011;46889;37.310;13.582;2023-07-09T00:53:40;9.85;;;3.25;;
61003;SDS011;46889;37.310;13.582;2023-07-09T00:56:12;12.00;;;3.55;;
61003;SDS011;46889;37.310;13.582;2023-07-09T00:58:42;9.98;;;3.90;;
61003;SDS011;46889;37.310;13.582;2023-07-09T01:01:12;8.55;;;3.58;;
61003;SDS011;46889;37.310;13.582;2023-07-09T01:03:44;6.75;;;2.85;;
61003;SDS011;46889;37.310;13.582;2023-07-09T01:06:15;8.90;;;3.53;;
61003;SDS011;46889;37.310;13.582;2023-07-09T01:08:49;8.82;;;3.67;;
61003;SDS011;46889;37.310;13.582;2023-07-09T01:11:20;8.80;;;4.03;;
61003;SDS011;46889;37.310;13.582;2023-07-09T01:13:48;12.85;;;3.80;;
61003;SDS011;46889;37.310;13.582;2023-07-09T01:16:18;9.77;;;3.78;;
61003;SDS011;46889;37.310;13.582;2023-07-09T01:18:51;11.05;;;3.55;;
61003;SDS011;46889;37.310;13.582;2023-07-09T01:21:18;12.00;;;3.28;;
61003;SDS011;46889;37.310;13.582;2023-07-09T01:23:46;11.60;;;3.63;;
61003;SDS011;46889;37.310;13.582;2023-07-09T01:26:14;10.32;;;2.80;;
61003;SDS011;46889;37.310;13.582;2023-07-09T01:28:45;8.27;;;3.03;;
61003;SDS011;46889;37.310;13.582;2023-07-09T01:31:12;5.82;;;2.60;;
61003;SDS011;46889;37.310;13.582;2023-07-09T01:33:40;7.30;;;2.88;;
61003;SDS011;46889;37.310;13.582;2023-07-09T01:36:10;6.30;;;3.10;;
61003;SDS011;46889;37.310;13.582;2023-07-09T01:38:40;6.43;;;3.05;;
61003;SDS011;46889;37.310;13.582;2023-07-09T01:41:07;6.20;;;2.70;;
61003;SDS011;46889;37.310;13.582;2023-07-09T01:43:33;7.85;;;3.13;;
61003;SDS011;46889;37.310;13.582;2023-07-09T01:46:00;6.50;;;2.67;;
61003;SDS011;46889;37.310;13.582;2023-07-09T01:48:26;8.02;;;2.80;;
61003;SDS011;46889;37.310;13.582;2023-07-09T01:50:53;4.82;;;2.47;;
61003;SDS011;46889;37.310;13.582;2023-07-09T01:53:21;5.13;;;2.58;;
61003;SDS011;46889;37.310;13.582;2023-07-09T01:55:51;6.90;;;2.75;;
61003;SDS011;46889;37.310;13.582;2023-07-09T01:58:19;9.43;;;3.25;;
61003;SDS011;46889;37.310;13.582;2023-07-09T02:00:50;8.27;;;2.88;;
61003;SDS011;46889;37.310;13.582;2023-07-09T02:03:16;7.43;;;2.85;;
61003;SDS011;46889;37.310;13.582;2023-07-09T02:05:42;6.32;;;3.20;;
61003;SDS011;46889;37.310;13.582;2023-07-09T02:08:09;7.57;;;2.80;;
61003;SDS011;46889;37.310;13.582;2023-07-09T02:10:35;8.07;;;2.85;;
61003;SDS011;46889;37.310;13.582;2023-07-09T02:13:01;7.05;;;3.05;;
61003;SDS011;46889;37.310;13.582;2023-07-09T02:15:27;8.90;;;3.03;;
61003;SDS011;46889;37.310;13.582;2023-07-09T02:17:55;5.63;;;2.95;;
61003;SDS011;46889;37.310;13.582;2023-07-09T02:20:24;5.72;;;2.88;;
61003;SDS011;46889;37.310;13.582;2023-07-09T02:22:51;8.88;;;2.95;;
61003;SDS011;46889;37.310;13.582;2023-07-09T02:25:17;6.72;;;3.20;;
61003;SDS011;46889;37.310;13.582;2023-07-09T02:27:43;6.30;;;3.00;;
61003;SDS011;46889;37.310;13.582;2023-07-09T02:30:10;7.55;;;2.80;;
61003;SDS011;46889;37.310;13.582;2023-07-09T02:32:36;5.18;;;2.90;;
61003;SDS011;46889;37.310;13.582;2023-07-09T02:35:02;7.80;;;3.22;;
61003;SDS011;46889;37.310;13.582;2023-07-09T02:37:29;9.10;;;3.10;;
61003;SDS011;46889;37.310;13.582;2023-07-09T02:39:55;7.53;;;3.17;;
61003;SDS011;46889;37.310;13.582;2023-07-09T02:42:22;6.93;;;3.03;;
61003;SDS011;46889;37.310;13.582;2023-07-09T02:44:49;5.70;;;3.00;;
61003;SDS011;46889;37.310;13.582;2023-07-09T02:47:16;5.97;;;2.85;;
61003;SDS011;46889;37.310;13.582;2023-07-09T02:49:42;8.02;;;2.80;;
61003;SDS011;46889;37.310;13.582;2023-07-09T02:52:08;7.25;;;2.72;;
61003;SDS011;46889;37.310;13.582;2023-07-09T02:57:00;9.02;;;3.22;;
61003;SDS011;46889;37.310;13.582;2023-07-09T02:59:27;7.43;;;3.10;;
61003;SDS011;46889;37.310;13.582;2023-07-09T03:01:54;6.80;;;3.13;;
61003;SDS011;46889;37.310;13.582;2023-07-09T03:04:21;7.68;;;3.13;;
61003;SDS011;46889;37.310;13.582;2023-07-09T03:06:47;7.72;;;2.90;;
61003;SDS011;46889;37.310;13.582;2023-07-09T03:09:13;6.60;;;3.03;;
61003;SDS011;46889;37.310;13.582;2023-07-09T03:11:39;7.93;;;2.60;;
61003;SDS011;46889;37.310;13.582;2023-07-09T03:14:06;5.03;;;2.85;;
61003;SDS011;46889;37.310;13.582;2023-07-09T03:16:33;6.45;;;2.60;;
61003;SDS011;46889;37.310;13.582;2023-07-09T03:18:59;8.07;;;2.97;;
61003;SDS011;46889;37.310;13.582;2023-07-09T03:21:27;7.72;;;2.80;;
61003;SDS011;46889;37.310;13.582;2023-07-09T03:23:53;9.40;;;2.92;;
61003;SDS011;46889;37.310;13.582;2023-07-09T03:26:20;7.65;;;2.60;;
61003;SDS011;46889;37.310;13.582;2023-07-09T03:33:38;7.72;;;2.65;;
61003;SDS011;46889;37.310;13.582;2023-07-09T03:36:04;5.63;;;2.40;;
61003;SDS011;46889;37.310;13.582;2023-07-09T03:43:23;6.22;;;2.50;;
61003;SDS011;46889;37.310;13.582;2023-07-09T03:50:43;5.55;;;2.50;;
61003;SDS011;46889;37.310;13.582;2023-07-09T03:53:11;4.65;;;2.60;;
61003;SDS011;46889;37.310;13.582;2023-07-09T03:55:38;6.57;;;2.70;;
61003;SDS011;46889;37.310;13.582;2023-07-09T04:07:52;9.23;;;2.38;;
61003;SDS011;46889;37.310;13.582;2023-07-09T04:15:10;7.32;;;3.33;;
61003;SDS011;46889;37.310;13.582;2023-07-09T04:17:38;15.90;;;4.28;;
61003;SDS011;46889;37.310;13.582;2023-07-09T04:20:05;8.10;;;3.53;;
61003;SDS011;46889;37.310;13.582;2023-07-09T04:22:32;9.80;;;4.00;;
61003;SDS011;46889;37.310;13.582;2023-07-09T04:25:00;12.50;;;3.42;;
61003;SDS011;46889;37.310;13.582;2023-07-09T04:27:27;10.25;;;3.50;;
61003;SDS011;46889;37.310;13.582;2023-07-09T04:29:54;10.00;;;3.78;;
61003;SDS011;46889;37.310;13.582;2023-07-09T04:32:20;13.93;;;4.50;;
61003;SDS011;46889;37.310;13.582;2023-07-09T04:34:46;10.63;;;4.80;;
61003;SDS011;46889;37.310;13.582;2023-07-09T04:37:12;12.00;;;5.03;;
61003;SDS011;46889;37.310;13.582;2023-07-09T04:39:41;11.07;;;5.47;;
61003;SDS011;46889;37.310;13.582;2023-07-09T04:42:10;9.38;;;5.28;;
61003;SDS011;46889;37.310;13.582;2023-07-09T04:44:38;12.00;;;5.20;;
61003;SDS011;46889;37.310;13.582;2023-07-09T04:47:05;12.07;;;4.63;;
61003;SDS011;46889;37.310;13.582;2023-07-09T04:49:31;8.05;;;4.78;;
61003;SDS011;46889;37.310;13.582;2023-07-09T04:51:57;7.97;;;4.88;;
61003;SDS011;46889;37.310;13.582;2023-07-09T04:54:24;14.77;;;4.97;;
61003;SDS011;46889;37.310;13.582;2023-07-09T04:56:51;8.98;;;4.35;;
61003;SDS011;46889;37.310;13.582;2023-07-09T04:59:18;8.43;;;4.70;;
61003;SDS011;46889;37.310;13.582;2023-07-09T05:01:44;11.90;;;4.68;;
61003;SDS011;46889;37.310;13.582;2023-07-09T05:09:03;11.55;;;4.32;;
61003;SDS011;46889;37.310;13.582;2023-07-09T05:11:30;8.70;;;4.38;;
61003;SDS011;46889;37.310;13.582;2023-07-09T05:13:58;8.25;;;4.35;;
61003;SDS011;46889;37.310;13.582;2023-07-09T05:16:25;9.45;;;3.65;;
61003;SDS011;46889;37.310;13.582;2023-07-09T05:18:51;9.32;;;4.13;;
61003;SDS011;46889;37.310;13.582;2023-07-09T05:23:43;12.73;;;3.95;;
61003;SDS011;46889;37.310;13.582;2023-07-09T05:26:09;9.85;;;4.55;;
61003;SDS011;46889;37.310;13.582;2023-07-09T05:28:35;11.18;;;4.15;;
61003;SDS011;46889;37.310;13.582;2023-07-09T05:31:01;10.32;;;4.43;;
61003;SDS011;46889;37.310;13.582;2023-07-09T05:35:53;8.00;;;4.07;;
61003;SDS011;46889;37.310;13.582;2023-07-09T05:38:19;13.93;;;4.43;;
61003;SDS011;46889;37.310;13.582;2023-07-09T05:43:11;12.32;;;4.80;;
61003;SDS011;46889;37.310;13.582;2023-07-09T05:45:40;11.10;;;5.28;;
61003;SDS011;46889;37.310;13.582;2023-07-09T05:48:06;10.07;;;6.03;;
61003;SDS011;46889;37.310;13.582;2023-07-09T05:50:33;8.93;;;5.00;;
61003;SDS011;46889;37.310;13.582;2023-07-09T05:53:01;14.15;;;8.75;;
61003;SDS011;46889;37.310;13.582;2023-07-09T05:55:27;9.50;;;5.32;;
61003;SDS011;46889;37.310;13.582;2023-07-09T05:57:53;8.75;;;4.35;;
61003;SDS011;46889;37.310;13.582;2023-07-09T06:00:19;9.15;;;4.15;;
61003;SDS011;46889;37.310;13.582;2023-07-09T06:02:45;7.00;;;3.88;;
61003;SDS011;46889;37.310;13.582;2023-07-09T06:05:11;10.55;;;6.05;;
61003;SDS011;46889;37.310;13.582;2023-07-09T06:07:38;24.02;;;16.75;;
61003;SDS011;46889;37.310;13.582;2023-07-09T06:10:05;13.55;;;8.05;;
61003;SDS011;46889;37.310;13.582;2023-07-09T06:12:33;6.65;;;3.95;;
61003;SDS011;46889;37.310;13.582;2023-07-09T06:15:00;11.35;;;4.85;;
61003;SDS011;46889;37.310;13.582;2023-07-09T06:17:26;27.60;;;16.55;;
61003;SDS011;46889;37.310;13.582;2023-07-09T06:19:52;18.33;;;6.90;;
61003;SDS011;46889;37.310;13.582;2023-07-09T06:22:18;10.93;;;6.00;;
61003;SDS011;46889;37.310;13.582;2023-07-09T06:24:44;11.30;;;6.65;;
61003;SDS011;46889;37.310;13.582;2023-07-09T06:27:11;14.63;;;6.07;;
61003;SDS011;46889;37.310;13.582;2023-07-09T06:29:37;10.60;;;4.90;;
61003;SDS011;46889;37.310;13.582;2023-07-09T06:32:03;6.72;;;3.10;;
61003;SDS011;46889;37.310;13.582;2023-07-09T06:34:30;8.50;;;3.40;;
61003;SDS011;46889;37.310;13.582;2023-07-09T06:36:56;7.72;;;3.15;;
61003;SDS011;46889;37.310;13.582;2023-07-09T06:39:23;5.78;;;2.97;;
61003;SDS011;46889;37.310;13.582;2023-07-09T06:41:49;11.40;;;2.97;;
61003;SDS011;46889;37.310;13.582;2023-07-09T06:44:15;7.25;;;2.90;;
61003;SDS011;46889;37.310;13.582;2023-07-09T06:46:41;5.82;;;2.65;;
61003;SDS011;46889;37.310;13.582;2023-07-09T06:49:10;6.55;;;2.58;;
61003;SDS011;46889;37.310;13.582;2023-07-09T06:51:36;7.93;;;2.40;;
61003;SDS011;46889;37.310;13.582;2023-07-09T06:54:02;7.63;;;2.55;;
61003;SDS011;46889;37.310;13.582;2023-07-09T06:56:30;8.18;;;2.80;;
61003;SDS011;46889;37.310;13.582;2023-07-09T06:58:56;4.45;;;2.72;;
61003;SDS011;46889;37.310;13.582;2023-07-09T07:01:22;11.10;;;2.70;;
61003;SDS011;46889;37.310;13.582;2023-07-09T07:03:48;7.00;;;2.50;;
61003;SDS011;46889;37.310;13.582;2023-07-09T07:06:14;12.23;;;2.80;;
61003;SDS011;46889;37.310;13.582;2023-07-09T07:08:41;8.75;;;2.63;;
61003;SDS011;46889;37.310;13.582;2023-07-09T07:11:07;16.63;;;3.25;;
61003;SDS011;46889;37.310;13.582;2023-07-09T07:13:38;11.25;;;2.75;;
61003;SDS011;46889;37.310;13.582;2023-07-09T07:16:06;6.38;;;2.42;;
61003;SDS011;46889;37.310;13.582;2023-07-09T07:18:33;7.78;;;2.50;;
61003;SDS011;46889;37.310;13.582;2023-07-09T07:21:01;6.95;;;2.70;;
61003;SDS011;46889;37.310;13.582;2023-07-09T07:23:27;8.85;;;2.67;;
61003;SDS011;46889;37.310;13.582;2023-07-09T07:25:54;7.88;;;2.50;;
61003;SDS011;46889;37.310;13.582;2023-07-09T07:28:20;6.22;;;2.55;;
61003;SDS011;46889;37.310;13.582;2023-07-09T07:30:47;6.65;;;2.80;;
61003;SDS011;46889;37.310;13.582;2023-07-09T07:33:25;5.63;;;2.72;;
61003;SDS011;46889;37.310;13.582;2023-07-09T07:35:51;12.82;;;2.70;;
61003;SDS011;46889;37.310;13.582;2023-07-09T07:38:18;7.78;;;2.85;;
61003;SDS011;46889;37.310;13.582;2023-07-09T07:40:44;10.23;;;3.13;;
61003;SDS011;46889;37.310;13.582;2023-07-09T08:02:08;5.97;;;2.58;;
61003;SDS011;46889;37.310;13.582;2023-07-09T08:04:37;8.98;;;3.33;;
61003;SDS011;46889;37.310;13.582;2023-07-09T08:07:05;6.47;;;2.50;;
61003;SDS011;46889;37.310;13.582;2023-07-09T08:09:35;6.53;;;2.70;;
61003;SDS011;46889;37.310;13.582;2023-07-09T08:12:03;6.22;;;2.83;;
61003;SDS011;46889;37.310;13.582;2023-07-09T08:14:38;6.35;;;3.00;;
61003;SDS011;46889;37.310;13.582;2023-07-09T08:17:05;7.30;;;2.67;;
61003;SDS011;46889;37.310;13.582;2023-07-09T08:19:32;7.38;;;2.47;;
61003;SDS011;46889;37.310;13.582;2023-07-09T08:22:10;9.82;;;3.45;;
61003;SDS011;46889;37.310;13.582;2023-07-09T08:24:36;8.82;;;2.88;;
61003;SDS011;46889;37.310;13.582;2023-07-09T08:27:02;7.20;;;2.80;;
61003;SDS011;46889;37.310;13.582;2023-07-09T08:29:28;15.15;;;2.95;;
61003;SDS011;46889;37.310;13.582;2023-07-09T08:31:54;5.43;;;2.40;;
61003;SDS011;46889;37.310;13.582;2023-07-09T08:34:20;8.80;;;2.75;;
61003;SDS011;46889;37.310;13.582;2023-07-09T08:36:46;7.80;;;2.67;;
61003;SDS011;46889;37.310;13.582;2023-07-09T08:39:13;6.35;;;2.25;;
61003;SDS011;46889;37.310;13.582;2023-07-09T08:47:02;7.93;;;2.40;;
61003;SDS011;46889;37.310;13.582;2023-07-09T08:49:39;7.45;;;2.17;;
61003;SDS011;46889;37.310;13.582;2023-07-09T08:54:53;6.20;;;2.38;;
61003;SDS011;46889;37.310;13.582;2023-07-09T08:57:30;4.97;;;2.20;;
61003;SDS011;46889;37.310;13.582;2023-07-09T09:00:02;6.07;;;2.20;;
61003;SDS011;46889;37.310;13.582;2023-07-09T09:02:59;11.00;;;2.80;;
61003;SDS011;46889;37.310;13.582;2023-07-09T09:05:42;6.43;;;2.33;;
61003;SDS011;46889;37.310;13.582;2023-07-09T09:08:14;5.40;;;2.20;;
61003;SDS011;46889;37.310;13.582;2023-07-09T09:11:43;7.78;;;2.10;;
61003;SDS011;46889;37.310;13.582;2023-07-09T09:13:58;6.75;;;2.33;;
61003;SDS011;46889;37.310;13.582;2023-07-09T09:16:31;7.18;;;2.50;;
61003;SDS011;46889;37.310;13.582;2023-07-09T09:19:01;4.60;;;2.33;;
61003;SDS011;46889;37.310;13.582;2023-07-09T09:21:32;5.60;;;2.33;;
61003;SDS011;46889;37.310;13.582;2023-07-09T09:27:19;4.28;;;2.35;;
61003;SDS011;46889;37.310;13.582;2023-07-09T09:29:45;6.15;;;2.63;;
61003;SDS011;46889;37.310;13.582;2023-07-09T09:32:19;8.25;;;2.70;;
61003;SDS011;46889;37.310;13.582;2023-07-09T09:34:46;7.53;;;2.58;;
61003;SDS011;46889;37.310;13.582;2023-07-09T09:37:12;6.70;;;2.65;;
61003;SDS011;46889;37.310;13.582;2023-07-09T09:42:13;9.02;;;2.75;;
61003;SDS011;46889;37.310;13.582;2023-07-09T09:44:43;5.97;;;2.70;;
61003;SDS011;46889;37.310;13.582;2023-07-09T09:47:10;5.38;;;2.33;;
61003;SDS011;46889;37.310;13.582;2023-07-09T09:49:40;5.30;;;2.95;;
61003;SDS011;46889;37.310;13.582;2023-07-09T09:52:12;10.88;;;2.90;;
61003;SDS011;46889;37.310;13.582;2023-07-09T09:54:41;7.05;;;2.70;;
61003;SDS011;46889;37.310;13.582;2023-07-09T09:57:19;10.77;;;3.05;;
61003;SDS011;46889;37.310;13.582;2023-07-09T09:59:47;5.38;;;2.85;;
61003;SDS011;46889;37.310;13.582;2023-07-09T10:02:18;7.93;;;2.60;;
61003;SDS011;46889;37.310;13.582;2023-07-09T10:04:46;7.63;;;2.50;;
61003;SDS011;46889;37.310;13.582;2023-07-09T10:07:23;5.63;;;2.55;;
61003;SDS011;46889;37.310;13.582;2023-07-09T10:09:57;5.03;;;2.47;;
61003;SDS011;46889;37.310;13.582;2023-07-09T10:17:33;9.30;;;2.92;;
61003;SDS011;46889;37.310;13.582;2023-07-09T10:26:45;10.15;;;2.85;;
61003;SDS011;46889;37.310;13.582;2023-07-09T10:32:06;4.85;;;2.80;;
61003;SDS011;46889;37.310;13.582;2023-07-09T10:35:00;89.30;;;6.78;;
61003;SDS011;46889;37.310;13.582;2023-07-09T10:40:17;5.50;;;2.78;;
61003;SDS011;46889;37.310;13.582;2023-07-09T10:43:10;7.30;;;2.78;;
61003;SDS011;46889;37.310;13.582;2023-07-09T10:45:48;7.72;;;3.28;;
61003;SDS011;46889;37.310;13.582;2023-07-09T10:48:33;9.75;;;3.47;;
61003;SDS011;46889;37.310;13.582;2023-07-09T10:51:24;7.20;;;2.70;;
61003;SDS011;46889;37.310;13.582;2023-07-09T10:56:51;5.90;;;2.25;;
61003;SDS011;46889;37.310;13.582;2023-07-09T10:59:25;14.52;;;2.53;;
61003;SDS011;46889;37.310;13.582;2023-07-09T11:01:54;8.55;;;2.60;;
61003;SDS011;46889;37.310;13.582;2023-07-09T11:07:12;6.13;;;2.60;;
61003;SDS011;46889;37.310;13.582;2023-07-09T11:09:43;6.68;;;2.53;;
61003;SDS011;46889;37.310;13.582;2023-07-09T11:12:17;9.98;;;2.75;;
61003;SDS011;46889;37.310;13.582;2023-07-09T11:14:56;7.85;;;2.70;;
61003;SDS011;46889;37.310;13.582;2023-07-09T11:17:30;5.07;;;2.60;;
61003;SDS011;46889;37.310;13.582;2023-07-09T11:19:59;7.55;;;3.13;;
61003;SDS011;46889;37.310;13.582;2023-07-09T11:22:38;8.45;;;2.90;;
61003;SDS011;46889;37.310;13.582;2023-07-09T11:30:16;7.70;;;2.53;;
61003;SDS011;46889;37.310;13.582;2023-07-09T11:32:46;7.35;;;2.75;;
61003;SDS011;46889;37.310;13.582;2023-07-09T11:35:23;8.30;;;2.40;;
61003;SDS011;46889;37.310;13.582;2023-07-09T11:37:53;6.65;;;2.42;;
61003;SDS011;46889;37.310;13.582;2023-07-09T11:40:21;8.13;;;2.80;;
61003;SDS011;46889;37.310;13.582;2023-07-09T11:42:49;6.93;;;2.60;;
61003;SDS011;46889;37.310;13.582;2023-07-09T11:50:44;4.55;;;2.28;;
61003;SDS011;46889;37.310;13.582;2023-07-09T11:55:58;7.20;;;2.43;;
61003;SDS011;46889;37.310;13.582;2023-07-09T11:58:24;6.68;;;2.33;;
61003;SDS011;46889;37.310;13.582;2023-07-09T12:03:19;7.68;;;2.55;;
61003;SDS011;46889;37.310;13.582;2023-07-09T12:05:52;6.85;;;2.55;;
61003;SDS011;46889;37.310;13.582;2023-07-09T12:08:26;6.57;;;2.50;;
61003;SDS011;46889;37.310;13.582;2023-07-09T12:10:57;7.78;;;2.53;;
61003;SDS011;46889;37.310;13.582;2023-07-09T12:15:49;4.90;;;2.17;;
61003;SDS011;46889;37.310;13.582;2023-07-09T12:20:42;9.70;;;2.58;;
61003;SDS011;46889;37.310;13.582;2023-07-09T12:23:22;7.15;;;2.33;;
61003;SDS011;46889;37.310;13.582;2023-07-09T12:25:59;5.97;;;2.50;;
61003;SDS011;46889;37.310;13.582;2023-07-09T12:28:26;5.53;;;2.45;;
61003;SDS011;46889;37.310;13.582;2023-07-09T12:30:54;5.97;;;2.15;;
61003;SDS011;46889;37.310;13.582;2023-07-09T12:33:21;7.63;;;2.33;;
61003;SDS011;46889;37.310;13.582;2023-07-09T12:35:50;6.90;;;2.30;;
61003;SDS011;46889;37.310;13.582;2023-07-09T12:38:30;8.00;;;2.60;;
61003;SDS011;46889;37.310;13.582;2023-07-09T12:41:16;5.22;;;2.60;;
61003;SDS011;46889;37.310;13.582;2023-07-09T12:43:46;7.07;;;2.40;;
61003;SDS011;46889;37.310;13.582;2023-07-09T12:46:12;6.70;;;2.53;;
61003;SDS011;46889;37.310;13.582;2023-07-09T12:48:39;5.47;;;2.40;;
61003;SDS011;46889;37.310;13.582;2023-07-09T12:51:06;5.13;;;2.20;;
61003;SDS011;46889;37.310;13.582;2023-07-09T12:53:35;5.95;;;2.60;;
61003;SDS011;46889;37.310;13.582;2023-07-09T12:56:02;5.82;;;2.65;;
61003;SDS011;46889;37.310;13.582;2023-07-09T13:01:05;6.70;;;2.38;;
61003;SDS011;46889;37.310;13.582;2023-07-09T13:03:42;5.50;;;2.53;;
61003;SDS011;46889;37.310;13.582;2023-07-09T13:06:25;8.27;;;2.80;;
61003;SDS011;46889;37.310;13.582;2023-07-09T13:08:55;5.30;;;2.60;;
61003;SDS011;46889;37.310;13.582;2023-07-09T13:11:31;7.07;;;2.70;;
61003;SDS011;46889;37.310;13.582;2023-07-09T13:14:01;7.95;;;2.25;;
61003;SDS011;46889;37.310;13.582;2023-07-09T13:16:29;6.22;;;2.20;;
61003;SDS011;46889;37.310;13.582;2023-07-09T13:18:56;5.90;;;2.80;;
61003;SDS011;46889;37.310;13.582;2023-07-09T13:23:48;6.93;;;2.40;;
61003;SDS011;46889;37.310;13.582;2023-07-09T13:26:15;5.85;;;2.28;;
61003;SDS011;46889;37.310;13.582;2023-07-09T13:28:41;5.63;;;2.30;;
61003;SDS011;46889;37.310;13.582;2023-07-09T13:31:14;6.60;;;2.60;;
61003;SDS011;46889;37.310;13.582;2023-07-09T13:33:42;8.05;;;2.50;;
61003;SDS011;46889;37.310;13.582;2023-07-09T13:36:08;4.88;;;2.30;;
61003;SDS011;46889;37.310;13.582;2023-07-09T13:38:36;6.45;;;2.45;;
61003;SDS011;46889;37.310;13.582;2023-07-09T13:41:10;5.22;;;2.22;;
61003;SDS011;46889;37.310;13.582;2023-07-09T13:43:43;7.68;;;2.50;;
61003;SDS011;46889;37.310;13.582;2023-07-09T13:46:11;7.30;;;2.33;;
61003;SDS011;46889;37.310;13.582;2023-07-09T13:48:38;5.28;;;2.40;;
61003;SDS011;46889;37.310;13.582;2023-07-09T13:51:27;7.85;;;2.72;;
61003;SDS011;46889;37.310;13.582;2023-07-09T13:53:53;7.07;;;2.47;;
61003;SDS011;46889;37.310;13.582;2023-07-09T13:56:20;6.82;;;2.42;;
61003;SDS011;46889;37.310;13.582;2023-07-09T13:58:47;8.27;;;2.55;;
61003;SDS011;46889;37.310;13.582;2023-07-09T14:01:15;6.82;;;2.38;;
61003;SDS011;46889;37.310;13.582;2023-07-09T14:03:45;9.10;;;2.58;;
61003;SDS011;46889;37.310;13.582;2023-07-09T14:06:12;5.20;;;2.10;;
61003;SDS011;46889;37.310;13.582;2023-07-09T14:08:40;11.98;;;2.60;;
61003;SDS011;46889;37.310;13.582;2023-07-09T14:11:12;8.75;;;2.33;;
61003;SDS011;46889;37.310;13.582;2023-07-09T14:13:41;7.45;;;2.67;;
61003;SDS011;46889;37.310;13.582;2023-07-09T14:16:11;11.18;;;2.42;;
61003;SDS011;46889;37.310;13.582;2023-07-09T14:18:38;7.00;;;2.30;;
61003;SDS011;46889;37.310;13.582;2023-07-09T14:21:12;7.13;;;2.30;;
61003;SDS011;46889;37.310;13.582;2023-07-09T14:23:39;6.80;;;2.30;;
61003;SDS011;46889;37.310;13.582;2023-07-09T14:26:05;6.90;;;2.50;;
61003;SDS011;46889;37.310;13.582;2023-07-09T14:28:33;7.88;;;2.35;;
61003;SDS011;46889;37.310;13.582;2023-07-09T14:31:01;6.55;;;2.30;;
61003;SDS011;46889;37.310;13.582;2023-07-09T14:35:53;6.53;;;2.33;;
61003;SDS011;46889;37.310;13.582;2023-07-09T14:38:23;10.75;;;2.53;;
61003;SDS011;46889;37.310;13.582;2023-07-09T14:40:51;8.00;;;2.30;;
61003;SDS011;46889;37.310;13.582;2023-07-09T14:43:19;6.70;;;2.30;;
61003;SDS011;46889;37.310;13.582;2023-07-09T14:45:45;10.23;;;2.72;;
61003;SDS011;46889;37.310;13.582;2023-07-09T14:48:13;10.02;;;2.75;;
61003;SDS011;46889;37.310;13.582;2023-07-09T14:50:41;5.65;;;2.40;;
61003;SDS011;46889;37.310;13.582;2023-07-09T14:53:21;12.40;;;2.67;;
61003;SDS011;46889;37.310;13.582;2023-07-09T14:55:52;9.00;;;2.60;;
61003;SDS011;46889;37.310;13.582;2023-07-09T14:58:20;7.03;;;2.55;;
61003;SDS011;46889;37.310;13.582;2023-07-09T15:00:48;10.20;;;3.20;;
61003;SDS011;46889;37.310;13.582;2023-07-09T15:03:19;8.57;;;2.72;;
61003;SDS011;46889;37.310;13.582;2023-07-09T15:05:49;10.63;;;2.80;;
61003;SDS011;46889;37.310;13.582;2023-07-09T15:08:17;5.63;;;2.50;;
61003;SDS011;46889;37.310;13.582;2023-07-09T15:10:47;4.70;;;2.22;;
61003;SDS011;46889;37.310;13.582;2023-07-09T15:13:16;10.95;;;2.88;;
61003;SDS011;46889;37.310;13.582;2023-07-09T15:15:43;6.40;;;2.42;;
61003;SDS011;46889;37.310;13.582;2023-07-09T15:18:11;6.55;;;2.40;;
61003;SDS011;46889;37.310;13.582;2023-07-09T15:20:39;7.13;;;3.03;;
61003;SDS011;46889;37.310;13.582;2023-07-09T15:23:08;13.95;;;4.15;;
61003;SDS011;46889;37.310;13.582;2023-07-09T15:25:36;10.38;;;3.28;;
61003;SDS011;46889;37.310;13.582;2023-07-09T15:28:02;10.90;;;2.78;;
61003;SDS011;46889;37.310;13.582;2023-07-09T15:30:29;6.75;;;2.35;;
61003;SDS011;46889;37.310;13.582;2023-07-09T15:32:57;14.23;;;2.85;;
61003;SDS011;46889;37.310;13.582;2023-07-09T15:35:26;7.95;;;2.85;;
61003;SDS011;46889;37.310;13.582;2023-07-09T15:37:57;6.00;;;2.45;;
61003;SDS011;46889;37.310;13.582;2023-07-09T15:42:52;9.60;;;2.70;;
61003;SDS011;46889;37.310;13.582;2023-07-09T15:45:20;8.88;;;2.60;;
61003;SDS011;46889;37.310;13.582;2023-07-09T15:50:14;11.45;;;2.75;;
61003;SDS011;46889;37.310;13.582;2023-07-09T15:52:46;6.57;;;2.35;;
61003;SDS011;46889;37.310;13.582;2023-07-09T15:55:14;7.72;;;2.40;;
61003;SDS011;46889;37.310;13.582;2023-07-09T15:57:41;6.28;;;2.45;;
61003;SDS011;46889;37.310;13.582;2023-07-09T16:02:41;6.35;;;2.20;;
61003;SDS011;46889;37.310;13.582;2023-07-09T16:05:11;14.32;;;2.80;;
61003;SDS011;46889;37.310;13.582;2023-07-09T16:07:51;13.73;;;2.63;;
61003;SDS011;46889;37.310;13.582;2023-07-09T16:10:19;8.68;;;2.80;;
61003;SDS011;46889;37.310;13.582;2023-07-09T16:12:47;15.60;;;3.25;;
61003;SDS011;46889;37.310;13.582;2023-07-09T16:15:15;7.45;;;2.80;;
61003;SDS011;46889;37.310;13.582;2023-07-09T16:17:43;6.88;;;2.30;;
61003;SDS011;46889;37.310;13.582;2023-07-09T16:20:11;6.97;;;2.45;;
61003;SDS011;46889;37.310;13.582;2023-07-09T16:22:42;8.85;;;2.60;;
61003;SDS011;46889;37.310;13.582;2023-07-09T16:25:20;6.70;;;3.00;;
61003;SDS011;46889;37.310;13.582;2023-07-09T16:27:49;9.65;;;2.80;;
61003;SDS011;46889;37.310;13.582;2023-07-09T16:30:17;8.65;;;3.22;;
61003;SDS011;46889;37.310;13.582;2023-07-09T16:32:45;9.27;;;3.20;;
61003;SDS011;46889;37.310;13.582;2023-07-09T16:35:12;8.88;;;2.60;;
61003;SDS011;46889;37.310;13.582;2023-07-09T16:37:40;10.55;;;2.75;;
61003;SDS011;46889;37.310;13.582;2023-07-09T16:40:18;8.00;;;2.70;;
61003;SDS011;46889;37.310;13.582;2023-07-09T16:42:45;7.57;;;2.58;;
61003;SDS011;46889;37.310;13.582;2023-07-09T16:45:15;6.15;;;2.58;;
61003;SDS011;46889;37.310;13.582;2023-07-09T16:47:43;8.43;;;3.03;;
61003;SDS011;46889;37.310;13.582;2023-07-09T16:50:13;13.30;;;3.53;;
61003;SDS011;46889;37.310;13.582;2023-07-09T16:52:41;6.78;;;2.90;;
61003;SDS011;46889;37.310;13.582;2023-07-09T16:55:09;8.05;;;2.88;;
61003;SDS011;46889;37.310;13.582;2023-07-09T16:57:44;7.82;;;3.00;;